Flight Track Log - Related Links

Times and Time Zones

All times are in EDT time to prevent confusion due to time zone crossing. See the UAL3773 flight status page for this flight to view local times or setup timezone preferences in your user account.

Time Position Orientation Groundspeed Altitude Reporting Facility
EDT Latitude Longitude Course Direction KTS MPH feet Rate Location/Type
Sun 03:46:00 PM 38.9333 -77.5833 288° West 213 245 3,600  Level Potomac TRACON
Sun 03:46:54 PM 38.9000 -77.6500 237° Southwest 262 302 4,300 730 Climbing Potomac TRACON
Sun 03:47:55 PM 38.8833 -77.7333 256° West 268 308 5,000 1,068 Climbing Potomac TRACON
Sun 03:48:52 PM 38.8325 -77.8169 232° Southwest 272 313 6,400 1,795 Climbing Washington Center
Sun 03:49:52 PM 38.8000 -77.8772 235° Southwest 277 319 8,500 2,430 Climbing Washington Center
Sun 03:50:53 PM 38.8019 -77.9917 271° West 260 299 11,300 2,083 Climbing Washington Center
Sun 03:51:00 PM 38.8431 -78.1724 288° West  Level FlightAware Approximate
Sun 03:51:53 PM 38.8289 -78.1019 287° West 289 333 12,700  Level Washington Center
Sun 03:52:52 PM 38.8533 -78.2228 285° West 323 372 14,200 1,550 Climbing Washington Center
Sun 03:53:53 PM 38.8525 -78.3506 270° West 351 404 15,800 1,600 Climbing Washington Center
Sun 03:54:52 PM 38.8514 -78.4892 269° West 370 426 17,400 1,311 Climbing Washington Center
Sun 03:55:52 PM 38.8503 -78.6250 269° West 384 442 18,400 1,289 Climbing Washington Center
Sun 03:56:53 PM 38.8486 -78.7608 269° West 384 442 20,000 1,537 Climbing Washington Center
Sun 03:57:53 PM 38.8469 -78.9022 269° West 389 448 21,500 1,450 Climbing Washington Center
Sun 03:58:53 PM 38.8453 -79.0381 269° West 389 448 22,900 1,311 Climbing Washington Center
Sun 03:59:52 PM 38.8433 -79.1792 269° West 389 448 24,100 1,109 Climbing Washington Center
Sun 04:00:52 PM 38.8411 -79.3150 269° West 389 448 25,100 1,000 Climbing Washington Center
Sun 04:01:52 PM 38.8389 -79.4561 269° West 389 448 26,100 1,041 Climbing Washington Center
Sun 04:02:53 PM 38.8361 -79.6053 269° West 403 464 27,200 1,000 Climbing Washington Center
Sun 04:03:52 PM 38.8311 -79.7464 267° West 410 472 28,100 958 Climbing Washington Center
Sun 04:04:52 PM 38.8283 -79.8875 269° West 404 465 29,100 982 Climbing Washington Center
Sun 04:06:37 PM 38.8192 -80.1086 267° West 391 450 30,800 970 Climbing Indianapolis Center
Sun 04:07:39 PM 38.8158 -80.2456 268° West 385 443 31,800 1,016 Climbing Indianapolis Center
Sun 04:08:41 PM 38.8131 -80.3828 269° West 385 443 32,900 1,016 Climbing Indianapolis Center
Sun 04:09:43 PM 38.8089 -80.5161 268° West 374 430 33,900 1,065 Climbing Indianapolis Center
Sun 04:10:45 PM 38.8044 -80.6747 268° West 373 429 35,100 1,016 Climbing Indianapolis Center
Sun 04:11:47 PM 38.8008 -80.8039 268° West 364 419 36,000 439 Climbing Indianapolis Center
Sun 04:12:48 PM 38.7953 -80.9336 267° West 365 420 36,000  Level Indianapolis Center
Sun 04:13:50 PM 38.7908 -81.0697 268° West 380 437 36,000  Level Indianapolis Center
Sun 04:14:52 PM 38.7861 -81.2100 268° West 393 452 36,000  Level Indianapolis Center
Sun 04:15:54 PM 38.7811 -81.3531 267° West 402 463 36,000  Level Indianapolis Center
Sun 04:16:56 PM 38.7750 -81.5172 267° West 397 457 36,000  Level Indianapolis Center
Sun 04:17:58 PM 38.7686 -81.6600 267° West 398 458 36,000  Level Indianapolis Center
Sun 04:19:00 PM 38.7639 -81.8019 268° West 406 467 36,000  Level Indianapolis Center
Sun 04:20:02 PM 38.7583 -81.9450 267° West 404 465 36,000  Level Indianapolis Center
Sun 04:21:04 PM 38.7506 -82.1178 267° West 405 466 36,000  Level Indianapolis Center
Sun 04:22:06 PM 38.7456 -82.2628 268° West 408 470 36,000  Level Indianapolis Center
Sun 04:23:08 PM 38.7397 -82.4078 267° West 408 470 36,000  Level Indianapolis Center
Sun 04:24:10 PM 38.7339 -82.5539 267° West 410 472 36,000  Level Indianapolis Center
Sun 04:25:12 PM 38.7275 -82.6992 267° West 409 471 36,000  Level Indianapolis Center
Sun 04:26:14 PM 38.7228 -82.8469 268° West 414 476 36,000  Level Indianapolis Center
Sun 04:27:16 PM 38.7439 -82.9931 281° West 417 480 36,000  Level Indianapolis Center
Sun 04:28:18 PM 38.7672 -83.1711 280° West 421 484 36,000  Level Indianapolis Center
Sun 04:29:20 PM 38.7861 -83.3053 280° West 416 479 36,000  Level Indianapolis Center
Sun 04:30:22 PM 38.8067 -83.4550 280° West 420 483 36,000  Level Indianapolis Center
Sun 04:31:24 PM 38.8253 -83.6044 279° West 420 483 36,000  Level Indianapolis Center
Sun 04:32:26 PM 38.8494 -83.7789 280° West 422 486 36,000  Level Indianapolis Center
Sun 04:33:28 PM 38.8686 -83.9275 279° West 419 482 36,000  Level Indianapolis Center
Sun 04:34:30 PM 38.8869 -84.0764 279° West 419 482 36,000  Level Indianapolis Center
Sun 04:35:32 PM 38.9061 -84.2242 280° West 416 479 36,000  Level Indianapolis Center
Sun 04:36:34 PM 38.9253 -84.3742 279° West 418 481 36,000  Level Indianapolis Center
Sun 04:37:36 PM 38.9439 -84.5228 279° West 418 481 36,000  Level Indianapolis Center
Sun 04:38:38 PM 38.9614 -84.6733 279° West 418 481 36,000  Level Indianapolis Center
Sun 04:39:41 PM 38.9803 -84.8231 279° West 420 483 36,000  Level Indianapolis Center
Sun 04:40:42 PM 39.0011 -84.9989 279° West 419 482 36,000  Level Indianapolis Center
Sun 04:41:44 PM 39.0183 -85.1481 278° West 421 484 36,000  Level Indianapolis Center
Sun 04:42:46 PM 39.0369 -85.2986 279° West 424 488 36,000  Level Indianapolis Center
Sun 04:43:48 PM 39.0539 -85.4472 278° West 421 484 36,000  Level Indianapolis Center
Sun 04:44:50 PM 39.0731 -85.5978 279° West 424 488 36,000  Level Indianapolis Center
Sun 04:45:52 PM 39.0892 -85.7500 278° West 427 491 36,000  Level Indianapolis Center
Sun 04:46:54 PM 39.1067 -85.9025 278° West 428 493 36,000  Level Indianapolis Center
Sun 04:47:56 PM 39.1275 -86.0861 278° West 430 495 36,000  Level Indianapolis Center
Sun 04:48:58 PM 39.1444 -86.2419 278° West 438 504 36,000  Level Indianapolis Center
Sun 04:50:00 PM 39.1606 -86.3972 278° West 438 504 36,000  Level Indianapolis Center
Sun 04:51:02 PM 39.1769 -86.5514 278° West 437 503 36,000  Level Indianapolis Center
Sun 04:52:04 PM 39.1950 -86.7075 279° West 440 506 36,000  Level Indianapolis Center
Sun 04:53:06 PM 39.2108 -86.8644 277° West 442 509 36,000  Level Indianapolis Center
Sun 04:54:08 PM 39.2300 -87.0514 278° West 441 507 36,000  Level Indianapolis Center
Sun 04:55:10 PM 39.2461 -87.2072 278° West 440 506 36,000  Level Indianapolis Center
Sun 04:56:12 PM 39.2611 -87.3622 277° West 435 501 36,000  Level Indianapolis Center
Sun 04:57:14 PM 39.2767 -87.5169 277° West 435 501 36,000  Level Indianapolis Center
Sun 04:58:16 PM 39.2919 -87.6706 277° West 433 498 36,000  Level Indianapolis Center
Sun 04:59:18 PM 39.3061 -87.8247 277° West 433 498 36,000  Level Indianapolis Center
Sun 05:00:19 PM 39.3208 -87.9806 277° West 434 499 36,000  Level Indianapolis Center
Sun 05:01:21 PM 39.3381 -88.1664 277° West 434 499 36,000  Level Indianapolis Center
Sun 05:02:35 PM 39.3517 -88.3250 276° West 437 503 36,000  Level Kansas City Center
Sun 05:03:36 PM 39.3689 -88.5131 277° West 439 505 36,000  Level Kansas City Center
Sun 05:04:37 PM 39.3814 -88.6639 276° West 443 510 36,000  Level Kansas City Center
Sun 05:05:41 PM 39.3953 -88.8211 277° West 443 510 36,000  Level Kansas City Center
Sun 05:06:41 PM 39.4097 -88.9794 277° West 445 512 36,000  Level Kansas City Center
Sun 05:07:45 PM 39.4242 -89.1453 276° West 444 511 36,000  Level Kansas City Center
Sun 05:08:47 PM 39.4386 -89.3225 276° West 437 503 36,000  Level Kansas City Center
Sun 05:09:49 PM 39.4514 -89.4764 276° West 434 499 36,000  Level Kansas City Center
Sun 05:10:51 PM 39.4636 -89.6297 276° West 432 497 36,000  Level Kansas City Center
Sun 05:11:52 PM 39.4750 -89.7792 276° West 425 489 36,000  Level Kansas City Center
Sun 05:12:55 PM 39.4867 -89.9314 276° West 427 491 36,000  Level Kansas City Center
Sun 05:13:55 PM 39.5011 -90.1128 276° West 426 490 36,000  Level Kansas City Center
Sun 05:14:58 PM 39.5119 -90.2647 275° West 426 490 36,000  Level Kansas City Center
Sun 05:15:59 PM 39.5233 -90.4161 276° West 426 490 36,000  Level Kansas City Center
Sun 05:17:03 PM 39.5339 -90.5681 275° West 426 490 36,000  Level Kansas City Center
Sun 05:18:04 PM 39.5447 -90.7206 275° West 428 493 36,000  Level Kansas City Center
Sun 05:19:07 PM 39.5553 -90.8747 275° West 430 495 36,000  Level Kansas City Center
Sun 05:20:07 PM 39.5678 -91.0581 275° West 430 495 36,000  Level Kansas City Center
Sun 05:21:10 PM 39.5775 -91.2125 275° West 432 497 36,000  Level Kansas City Center
Sun 05:22:12 PM 39.5867 -91.3631 275° West 431 496 36,000  Level Kansas City Center
Sun 05:23:16 PM 39.5975 -91.5161 275° West 431 496 36,000  Level Kansas City Center
Sun 05:24:16 PM 39.6078 -91.7022 274° West 432 497 36,000  Level Kansas City Center
Sun 05:25:17 PM 39.6189 -91.8561 275° West 432 497 36,000  Level Kansas City Center
Sun 05:26:20 PM 39.6281 -92.0100 274° West 431 496 36,000  Level Kansas City Center
Sun 05:27:22 PM 39.6367 -92.1625 274° West 427 491 36,000  Level Kansas City Center
Sun 05:28:26 PM 39.6453 -92.3172 274° West 429 494 36,000 -145 Level Kansas City Center
Sun 05:29:26 PM 39.6536 -92.4700 274° West 427 491 35,700 -1,024 Descending Kansas City Center
Sun 05:30:29 PM 39.6522 -92.6553 270° West 426 490 33,900 -1,619 Descending Kansas City Center
Sun 05:31:32 PM 39.6508 -92.8108 269° West 431 496 32,300 -2,195 Descending Kansas City Center
Sun 05:32:32 PM 39.6481 -92.9633 269° West 427 491 29,400 -2,902 Descending Kansas City Center
Sun 05:33:34 PM 39.6456 -93.1067 269° West 407 468 26,400 -2,806 Descending Kansas City Center
Sun 05:34:36 PM 39.6425 -93.2461 268° West 392 451 23,600 -2,661 Descending Kansas City Center
Sun 05:35:38 PM 39.6394 -93.3831 268° West 385 443 20,900 -2,855 Descending Kansas City Center
Sun 05:36:40 PM 39.6375 -93.5464 269° West 380 437 17,700 -2,714 Descending Kansas City Center
Sun 05:37:44 PM 39.6350 -93.6778 269° West 369 425 15,200 -2,634 Descending Kansas City Center
Sun 05:38:43 PM 39.6325 -93.8119 269° West 349 402 12,300 -2,390 Descending Kansas City Center
Sun 05:39:47 PM 39.6111 -93.9128 255° West 298 343 10,300 -1,734 Descending Kansas City Center
Sun 05:40:51 PM 39.5669 -94.0014 237° Southwest 259 298 8,600 -1,561 Descending Kansas City Center
Sun 05:41:50 PM 39.5297 -94.0769 237° Southwest 260 299 7,100 -793 Descending Kansas City Center
Sun 05:42:52 PM 39.5225 -94.1822 265° West 263 303 7,000 -49 Descending Kansas City Center
Sun 05:43:53 PM 39.5158 -94.2722 265° West 264 304 7,000 -484 Level Kansas City Center
Sun 05:44:56 PM 39.5094 -94.3622 265° West 263 303 6,000 -476 Descending Kansas City Center
Sun 05:45:59 PM 39.5008 -94.4669 264° West 264 304 6,000 -532 Level Kansas City Center
Sun 05:47:00 PM 39.4939 -94.5561 264° West 262 302 4,900 -960 Descending Kansas City Center
Sun 05:48:04 PM 39.4667 -94.6356 246° West 216 249 4,000 -432 Descending Kansas City Center
Sun 05:49:05 PM 39.4294 -94.6683 214° Southwest 170 196 4,000 -590 Level Kansas City Center
Sun 05:50:06 PM 39.3839 -94.6786 190° South 142 163 2,800 -912 Descending Kansas City Center
Sun 05:51:10 PM 39.3528 -94.6883 194° South 123 142 2,100 -762 Descending Kansas City Center
Sun 05:52:12 PM 39.3139 -94.7000 193° South 128 147 1,200 -871 Descending Kansas City Center
Sun 05:54:00 PM 39.2976 -94.7139 194° South  Level Estimated

Login

Don't have an account? Register now (free) for customized features, flight alerts, and more!